createdAt,value
2022-11-06T00:00:29.924Z,24.40
2022-11-06T00:01:29.976Z,23.40
2022-11-06T00:02:29.964Z,27.80
2022-11-06T00:03:29.956Z,20.80
2022-11-06T00:04:29.892Z,22.90
2022-11-06T00:05:29.880Z,20.90
2022-11-06T00:06:29.877Z,25.80
2022-11-06T00:07:29.886Z,25.70
2022-11-06T00:08:30.991Z,24.80
2022-11-06T00:09:30.992Z,26.00
2022-11-06T00:10:30.989Z,26.00
2022-11-06T00:11:30.968Z,24.10
2022-11-06T00:12:30.986Z,26.00
2022-11-06T00:13:30.950Z,27.70
2022-11-06T00:14:30.946Z,26.90
2022-11-06T00:15:30.941Z,29.50
2022-11-06T00:16:30.926Z,28.10
2022-11-06T00:17:30.946Z,25.10
2022-11-06T00:18:30.913Z,29.50
2022-11-06T00:19:30.909Z,25.90
2022-11-06T00:20:30.897Z,26.30
2022-11-06T00:21:30.890Z,26.80
2022-11-06T00:22:30.956Z,26.40
2022-11-06T00:23:30.896Z,25.60
2022-11-06T00:24:30.868Z,26.00
2022-11-06T00:25:30.855Z,30.00
2022-11-06T00:26:31.851Z,28.20
2022-11-06T00:27:30.956Z,37.30
2022-11-06T00:28:30.835Z,31.30
2022-11-06T00:29:30.832Z,27.40
2022-11-06T00:30:30.826Z,30.80
2022-11-06T00:31:30.817Z,27.70
2022-11-06T00:32:30.833Z,29.30
2022-11-06T00:33:30.991Z,29.60
2022-11-06T00:34:30.791Z,31.40
2022-11-06T00:35:30.792Z,28.90
2022-11-06T00:36:30.777Z,33.00
2022-11-06T00:37:30.952Z,29.90
2022-11-06T00:38:30.766Z,30.50
2022-11-06T00:39:30.762Z,33.30
2022-11-06T00:40:30.745Z,26.30
2022-11-06T00:41:30.739Z,29.60
2022-11-06T00:42:30.971Z,28.30
2022-11-06T00:43:30.729Z,30.40
2022-11-06T00:44:30.718Z,27.00
2022-11-06T00:45:30.716Z,30.00
2022-11-06T00:46:30.694Z,29.00
2022-11-06T00:47:31.715Z,32.00
2022-11-06T00:48:30.686Z,35.90
2022-11-06T00:49:30.678Z,35.10
2022-11-06T00:50:30.669Z,34.80
2022-11-06T00:51:30.668Z,36.20
2022-11-06T00:52:30.685Z,34.60
2022-11-06T00:53:30.660Z,38.60
2022-11-06T00:54:30.643Z,36.20
2022-11-06T00:55:30.631Z,36.00
2022-11-06T00:56:30.627Z,38.30
2022-11-06T00:57:30.641Z,34.20
2022-11-06T00:58:30.607Z,33.40
2022-11-06T00:59:30.591Z,35.20
2022-11-06T01:00:30.591Z,32.60
2022-11-06T01:01:30.766Z,38.40
2022-11-06T01:02:30.802Z,31.70
2022-11-06T01:03:30.570Z,33.80
2022-11-06T01:04:30.565Z,37.40
2022-11-06T01:05:30.554Z,33.80
2022-11-06T01:06:30.550Z,32.30
2022-11-06T01:07:30.573Z,37.30
2022-11-06T01:08:30.537Z,34.40
2022-11-06T01:09:30.526Z,33.40
2022-11-06T01:10:30.515Z,32.40
2022-11-06T01:11:46.451Z,31.50
2022-11-06T01:12:32.522Z,30.90
2022-11-06T01:13:30.489Z,35.80
2022-11-06T01:14:30.482Z,33.50
2022-11-06T01:15:30.477Z,33.80
2022-11-06T01:16:30.469Z,35.10
2022-11-06T01:17:30.484Z,31.90
2022-11-06T01:18:30.456Z,30.20
2022-11-06T01:19:30.442Z,35.90
2022-11-06T01:20:30.432Z,33.60
2022-11-06T01:21:30.425Z,31.60
2022-11-06T01:22:30.447Z,28.60
2022-11-06T01:23:30.416Z,33.20
2022-11-06T01:24:30.493Z,30.50
2022-11-06T01:25:30.395Z,29.20
2022-11-06T01:26:38.286Z,31.50
2022-11-06T01:27:32.399Z,27.80
2022-11-06T01:28:30.371Z,29.80
2022-11-06T01:29:30.366Z,28.10
2022-11-06T01:30:30.359Z,27.60
2022-11-06T01:31:30.358Z,30.90
2022-11-06T01:32:30.374Z,28.60
2022-11-06T01:33:30.315Z,24.60
2022-11-06T01:34:31.333Z,24.90
2022-11-06T01:35:30.315Z,30.70
2022-11-06T01:36:30.312Z,28.80
2022-11-06T01:37:30.342Z,25.00
2022-11-06T01:38:30.333Z,31.10
2022-11-06T01:39:30.281Z,29.30
2022-11-06T01:40:30.274Z,24.00
2022-11-06T01:41:30.269Z,26.00
2022-11-06T01:42:30.271Z,26.30
2022-11-06T01:43:30.276Z,26.30
2022-11-06T01:44:30.247Z,25.80
2022-11-06T01:45:30.239Z,28.90
2022-11-06T01:46:30.232Z,26.50
2022-11-06T01:47:30.227Z,26.80
2022-11-06T01:48:30.247Z,29.20
2022-11-06T01:49:30.212Z,23.90
2022-11-06T01:50:30.208Z,28.70
2022-11-06T01:51:30.190Z,25.70
2022-11-06T01:52:30.187Z,23.60
2022-11-06T01:53:30.215Z,23.20
2022-11-06T01:54:30.172Z,28.60
2022-11-06T01:55:30.160Z,21.30
2022-11-06T01:56:30.158Z,26.10
2022-11-06T01:57:30.151Z,25.60
2022-11-06T01:58:30.162Z,22.30
2022-11-06T01:59:30.131Z,22.90
2022-11-06T02:00:30.125Z,20.00
2022-11-06T02:01:30.210Z,25.80
2022-11-06T02:02:30.209Z,25.40
2022-11-06T02:03:30.128Z,24.80
2022-11-06T02:04:30.097Z,22.30
2022-11-06T02:05:30.081Z,23.20
2022-11-06T02:06:30.080Z,24.20
2022-11-06T02:07:30.070Z,23.50
2022-11-06T02:08:30.078Z,25.50
2022-11-06T02:09:30.053Z,21.90
2022-11-06T02:10:30.042Z,20.90
2022-11-06T02:11:30.038Z,28.70
2022-11-06T02:12:30.032Z,25.10
2022-11-06T02:13:30.045Z,23.50
2022-11-06T02:14:30.007Z,23.20
2022-11-06T02:15:29.996Z,24.00
2022-11-06T02:16:30.999Z,22.00
2022-11-06T02:17:29.994Z,23.40
2022-11-06T02:18:30.007Z,18.60
2022-11-06T02:19:29.976Z,23.20
2022-11-06T02:20:29.965Z,22.40
2022-11-06T02:21:29.955Z,24.60
2022-11-06T02:22:29.984Z,21.90
2022-11-06T02:23:29.938Z,25.10
2022-11-06T02:24:29.933Z,18.70
2022-11-06T02:25:29.927Z,22.00
2022-11-06T02:26:29.918Z,22.10
2022-11-06T02:27:29.938Z,27.30
2022-11-06T02:28:29.906Z,23.60
2022-11-06T02:29:29.894Z,25.50
2022-11-06T02:30:29.889Z,20.60
2022-11-06T02:31:29.882Z,21.20
2022-11-06T02:32:29.897Z,21.90
2022-11-06T02:33:29.862Z,18.10
2022-11-06T02:34:29.855Z,25.80
2022-11-06T02:35:29.847Z,22.60
2022-11-06T02:36:29.841Z,19.70
2022-11-06T02:37:29.854Z,23.40
2022-11-06T02:38:29.820Z,20.60
2022-11-06T02:39:29.824Z,23.20
2022-11-06T02:40:29.805Z,20.10
2022-11-06T02:41:29.802Z,20.70
2022-11-06T02:42:29.817Z,23.90
2022-11-06T02:43:29.787Z,23.40
2022-11-06T02:44:29.777Z,24.40
2022-11-06T02:45:29.770Z,22.20
2022-11-06T02:46:29.765Z,21.20
2022-11-06T02:47:29.776Z,19.90
2022-11-06T02:48:29.744Z,19.00
2022-11-06T02:49:29.735Z,22.10
2022-11-06T02:50:29.731Z,20.80
2022-11-06T02:51:29.727Z,25.50
2022-11-06T02:52:29.737Z,20.30
2022-11-06T02:53:29.709Z,22.00
2022-11-06T02:54:29.700Z,19.00
2022-11-06T02:55:29.694Z,19.00
2022-11-06T02:56:29.690Z,25.10
2022-11-06T02:57:29.701Z,20.60
2022-11-06T02:58:29.663Z,20.80
2022-11-06T02:59:29.656Z,21.80
2022-11-06T03:00:29.651Z,22.00
2022-11-06T03:01:29.847Z,23.40
2022-11-06T03:02:29.800Z,20.00
2022-11-06T03:03:29.645Z,25.80
2022-11-06T03:04:29.618Z,24.40
2022-11-06T03:05:29.608Z,23.80
2022-11-06T03:06:29.605Z,19.70
2022-11-06T03:07:29.619Z,22.10
2022-11-06T03:08:29.587Z,20.70
2022-11-06T03:09:29.595Z,21.00
2022-11-06T03:10:29.575Z,22.60
2022-11-06T03:11:29.571Z,19.10
2022-11-06T03:12:29.597Z,21.40
2022-11-06T03:13:29.556Z,20.80
2022-11-06T03:14:29.540Z,22.80
2022-11-06T03:15:29.539Z,23.30
2022-11-06T03:16:29.531Z,19.70
2022-11-06T03:17:29.539Z,19.70
2022-11-06T03:18:29.511Z,19.20
2022-11-06T03:19:29.512Z,19.50
2022-11-06T03:20:29.497Z,18.20
2022-11-06T03:21:29.487Z,21.50
2022-11-06T03:22:29.509Z,20.00
2022-11-06T03:23:29.479Z,23.10
2022-11-06T03:24:31.252Z,20.20
2022-11-06T03:25:30.453Z,24.40
2022-11-06T03:26:29.448Z,19.20
2022-11-06T03:27:29.487Z,23.30
2022-11-06T03:28:29.436Z,22.90
2022-11-06T03:29:29.431Z,19.40
2022-11-06T03:30:29.422Z,19.30
2022-11-06T03:31:29.415Z,18.80
2022-11-06T03:32:29.425Z,18.30
2022-11-06T03:33:29.395Z,23.50
2022-11-06T03:34:29.401Z,16.90
2022-11-06T03:35:29.386Z,21.10
2022-11-06T03:36:29.371Z,19.00
2022-11-06T03:37:29.394Z,20.90
2022-11-06T03:38:29.365Z,18.00
2022-11-06T03:39:29.342Z,21.80
2022-11-06T03:40:29.333Z,17.40
2022-11-06T03:41:29.330Z,21.00
2022-11-06T03:42:29.346Z,20.30
2022-11-06T03:43:29.329Z,18.60
2022-11-06T03:44:29.311Z,16.90
2022-11-06T03:45:29.300Z,19.20
2022-11-06T03:46:29.303Z,17.70
2022-11-06T03:47:29.314Z,16.20
2022-11-06T03:48:29.278Z,15.80
2022-11-06T03:49:29.271Z,16.50
2022-11-06T03:50:29.257Z,15.10
2022-11-06T03:51:29.255Z,15.40
2022-11-06T03:52:29.273Z,20.20
2022-11-06T03:53:29.243Z,19.90
2022-11-06T03:54:29.247Z,16.60
2022-11-06T03:55:29.229Z,17.00
2022-11-06T03:56:29.214Z,19.40
2022-11-06T03:57:29.232Z,16.60
2022-11-06T03:58:29.246Z,17.80
2022-11-06T03:59:29.193Z,18.80
2022-11-06T04:00:29.186Z,14.20
2022-11-06T04:01:29.274Z,16.40
2022-11-06T04:02:29.308Z,16.20
2022-11-06T04:03:29.167Z,14.90
2022-11-06T04:04:29.158Z,14.30
2022-11-06T04:05:29.153Z,13.80
2022-11-06T04:06:29.144Z,14.50
2022-11-06T04:07:29.159Z,14.30
2022-11-06T04:08:29.125Z,13.40
2022-11-06T04:09:29.119Z,14.10
2022-11-06T04:10:29.107Z,13.50
2022-11-06T04:11:29.121Z,15.10
2022-11-06T04:12:29.093Z,12.20
2022-11-06T04:13:29.084Z,11.80
2022-11-06T04:14:29.077Z,13.20
2022-11-06T04:15:29.070Z,11.70
2022-11-06T04:16:29.102Z,15.50
2022-11-06T04:17:29.052Z,13.80
2022-11-06T04:18:29.047Z,13.30
2022-11-06T04:19:29.039Z,13.20
2022-11-06T04:20:29.032Z,15.70
2022-11-06T04:21:29.050Z,13.60
2022-11-06T04:22:29.008Z,16.70
2022-11-06T04:23:29.008Z,17.40
2022-11-06T04:24:28.998Z,11.80
2022-11-06T04:25:28.992Z,15.70
2022-11-06T04:26:28.986Z,14.90
2022-11-06T04:27:29.005Z,15.50
2022-11-06T04:28:28.976Z,13.10
2022-11-06T04:29:28.961Z,13.60
2022-11-06T04:30:28.962Z,13.50
2022-11-06T04:31:28.969Z,13.60
2022-11-06T04:32:28.942Z,10.80
2022-11-06T04:33:28.932Z,11.70
2022-11-06T04:34:28.928Z,9.20
2022-11-06T04:35:28.914Z,11.60
2022-11-06T04:36:28.925Z,12.20
2022-11-06T04:37:28.905Z,13.00
2022-11-06T04:38:28.890Z,10.40
2022-11-06T04:39:28.877Z,14.50
2022-11-06T04:40:28.876Z,14.50
2022-11-06T04:41:28.891Z,10.00
2022-11-06T04:42:28.856Z,11.30
2022-11-06T04:43:28.857Z,14.80
2022-11-06T04:44:28.844Z,13.20
2022-11-06T04:45:28.845Z,15.20
2022-11-06T04:46:28.860Z,12.60
2022-11-06T04:47:28.821Z,13.50
2022-11-06T04:48:28.808Z,10.80
2022-11-06T04:49:28.884Z,10.10
2022-11-06T04:50:28.808Z,11.60
2022-11-06T04:51:28.838Z,11.70
2022-11-06T04:52:28.786Z,10.50
2022-11-06T04:53:28.780Z,11.60
2022-11-06T04:54:28.770Z,13.60
2022-11-06T04:55:28.763Z,12.60
2022-11-06T04:56:29.500Z,12.10
2022-11-06T04:57:29.749Z,8.60
2022-11-06T04:58:28.739Z,11.50
2022-11-06T04:59:28.732Z,12.90
2022-11-06T05:00:28.729Z,11.50
2022-11-06T05:01:28.853Z,12.70
2022-11-06T05:02:28.758Z,14.80
2022-11-06T05:03:28.705Z,13.10
2022-11-06T05:04:28.695Z,8.30
2022-11-06T05:05:28.683Z,9.90
2022-11-06T05:06:30.200Z,12.60
2022-11-06T05:07:29.701Z,12.90
2022-11-06T05:08:28.660Z,14.30
2022-11-06T05:09:28.651Z,8.90
2022-11-06T05:10:28.649Z,14.70
2022-11-06T05:11:28.676Z,9.50
2022-11-06T05:12:28.638Z,11.40
2022-11-06T05:13:28.624Z,16.00
2022-11-06T05:14:28.621Z,13.80
2022-11-06T05:15:28.604Z,13.60
2022-11-06T05:16:28.592Z,10.60
2022-11-06T05:17:31.536Z,12.60
2022-11-06T05:18:29.588Z,11.70
2022-11-06T05:19:28.583Z,8.70
2022-11-06T05:20:28.574Z,9.90
2022-11-06T05:21:28.572Z,11.20
2022-11-06T05:22:28.577Z,11.60
2022-11-06T05:23:28.540Z,12.70
2022-11-06T05:24:28.541Z,13.30
2022-11-06T05:25:28.532Z,12.00
2022-11-06T05:26:28.518Z,10.40
2022-11-06T05:27:28.541Z,8.60
2022-11-06T05:28:28.513Z,10.00
2022-11-06T05:29:28.496Z,14.10
2022-11-06T05:30:28.488Z,10.70
2022-11-06T05:31:28.474Z,11.00
2022-11-06T05:32:31.055Z,9.90
2022-11-06T05:33:28.462Z,10.60
2022-11-06T05:34:28.448Z,14.90
2022-11-06T05:35:28.448Z,11.20
2022-11-06T05:36:28.438Z,10.40
2022-11-06T05:37:28.453Z,9.30
2022-11-06T05:38:28.422Z,14.50
2022-11-06T05:39:28.416Z,10.10
2022-11-06T05:40:28.403Z,12.30
2022-11-06T05:41:28.392Z,10.80
2022-11-06T05:42:28.414Z,12.50
2022-11-06T05:43:28.384Z,13.30
2022-11-06T05:44:28.373Z,10.70
2022-11-06T05:45:28.363Z,12.10
2022-11-06T05:46:48.717Z,11.40
2022-11-06T05:47:30.373Z,11.60
2022-11-06T05:48:28.342Z,20.80
2022-11-06T05:49:28.336Z,15.50
2022-11-06T05:50:28.324Z,11.60
2022-11-06T05:51:28.544Z,12.30
2022-11-06T05:52:28.334Z,9.90
2022-11-06T05:53:28.299Z,11.80
2022-11-06T05:54:28.291Z,13.60
2022-11-06T05:55:28.283Z,10.60
2022-11-06T05:56:28.279Z,13.70
2022-11-06T05:57:28.301Z,10.40
2022-11-06T05:58:28.261Z,12.50
2022-11-06T05:59:28.254Z,12.60
2022-11-06T06:00:28.250Z,9.90
2022-11-06T06:01:28.275Z,17.80
2022-11-06T06:02:28.415Z,11.40
2022-11-06T06:03:28.224Z,9.40
2022-11-06T06:04:28.220Z,8.00
2022-11-06T06:05:28.213Z,8.90
2022-11-06T06:06:28.202Z,14.90
2022-11-06T06:07:28.221Z,10.00
2022-11-06T06:08:28.187Z,11.90
2022-11-06T06:09:28.184Z,14.80
2022-11-06T06:10:28.171Z,10.20
2022-11-06T06:11:28.168Z,8.20
2022-11-06T06:12:28.181Z,10.10
2022-11-06T06:13:28.149Z,9.20
2022-11-06T06:14:28.147Z,9.80
2022-11-06T06:15:28.131Z,8.90
2022-11-06T06:16:28.122Z,9.80
2022-11-06T06:17:28.130Z,9.80
2022-11-06T06:18:29.107Z,12.70
2022-11-06T06:19:28.103Z,7.90
2022-11-06T06:20:28.091Z,13.60
2022-11-06T06:21:28.085Z,10.40
2022-11-06T06:22:28.101Z,10.00
2022-11-06T06:23:28.070Z,10.30
2022-11-06T06:24:28.150Z,9.90
2022-11-06T06:25:28.134Z,9.60
2022-11-06T06:26:28.045Z,9.90
2022-11-06T06:27:28.070Z,11.30
2022-11-06T06:28:28.034Z,12.50
2022-11-06T06:29:28.024Z,10.50
2022-11-06T06:30:28.016Z,11.20
2022-11-06T06:31:28.010Z,9.20
2022-11-06T06:32:28.033Z,10.20
2022-11-06T06:33:27.996Z,11.40
2022-11-06T06:34:27.986Z,8.70
2022-11-06T06:35:27.977Z,10.40
2022-11-06T06:36:27.966Z,8.30
2022-11-06T06:37:27.990Z,8.30
2022-11-06T06:38:27.955Z,9.00
2022-11-06T06:39:27.950Z,11.50
2022-11-06T06:40:27.938Z,10.10
2022-11-06T06:41:27.929Z,11.00
2022-11-06T06:42:31.270Z,10.60
2022-11-06T06:43:28.946Z,9.90
2022-11-06T06:44:27.919Z,10.40
2022-11-06T06:45:27.902Z,9.80
2022-11-06T06:46:27.895Z,12.20
2022-11-06T06:47:27.882Z,11.40
2022-11-06T06:48:27.901Z,11.10
2022-11-06T06:49:27.874Z,9.30
2022-11-06T06:50:27.860Z,10.50
2022-11-06T06:51:27.851Z,12.50
2022-11-06T06:52:27.854Z,11.50
2022-11-06T06:53:27.866Z,11.50
2022-11-06T06:54:27.829Z,11.30
2022-11-06T06:55:27.822Z,9.80
2022-11-06T06:56:27.813Z,9.80
2022-11-06T06:57:27.807Z,12.00
2022-11-06T06:58:27.825Z,12.40
2022-11-06T06:59:27.790Z,9.30
2022-11-06T07:00:27.784Z,12.40
2022-11-06T07:01:27.921Z,8.80
2022-11-06T07:02:27.817Z,8.80
2022-11-06T07:03:27.783Z,9.50
2022-11-06T07:04:27.748Z,12.90
2022-11-06T07:05:27.743Z,8.90
2022-11-06T07:06:27.734Z,9.00
2022-11-06T07:07:27.725Z,11.50
2022-11-06T07:08:27.740Z,9.40
2022-11-06T07:09:27.712Z,10.40
2022-11-06T07:10:27.704Z,9.20
2022-11-06T07:11:27.691Z,8.70
2022-11-06T07:12:27.689Z,7.70
2022-11-06T07:13:32.824Z,10.00
2022-11-06T07:14:28.695Z,8.90
2022-11-06T07:15:27.661Z,7.50
2022-11-06T07:16:27.654Z,9.80
2022-11-06T07:17:27.647Z,8.00
2022-11-06T07:18:27.641Z,8.60
2022-11-06T07:19:27.658Z,11.90
2022-11-06T07:20:27.629Z,9.00
2022-11-06T07:21:27.616Z,7.50
2022-11-06T07:22:33.760Z,9.40
2022-11-06T07:23:29.607Z,9.00
2022-11-06T07:24:27.618Z,9.10
2022-11-06T07:25:27.588Z,8.00
2022-11-06T07:26:27.578Z,9.30
2022-11-06T07:27:27.568Z,8.40
2022-11-06T07:28:27.566Z,9.60
2022-11-06T07:29:27.661Z,6.90
2022-11-06T07:30:27.554Z,8.80
2022-11-06T07:31:27.541Z,9.40
2022-11-06T07:32:27.531Z,8.90
2022-11-06T07:33:27.525Z,9.00
2022-11-06T07:34:27.547Z,7.30
2022-11-06T07:35:27.508Z,9.20
2022-11-06T07:36:27.503Z,6.10
2022-11-06T07:37:27.501Z,8.40
2022-11-06T07:38:27.488Z,6.80
2022-11-06T07:39:27.502Z,7.00
2022-11-06T07:40:27.576Z,7.00
2022-11-06T07:41:27.468Z,8.50
2022-11-06T07:42:27.464Z,8.60
2022-11-06T07:43:27.449Z,7.50
2022-11-06T07:44:27.477Z,8.10
2022-11-06T07:45:27.432Z,6.60
2022-11-06T07:46:27.430Z,7.70
2022-11-06T07:47:27.421Z,6.40
2022-11-06T07:48:27.411Z,6.50
2022-11-06T07:49:27.430Z,5.90
2022-11-06T07:50:27.449Z,6.00
2022-11-06T07:51:27.384Z,6.20
2022-11-06T07:52:27.379Z,6.70
2022-11-06T07:53:27.372Z,6.50
2022-11-06T07:54:27.387Z,6.40
2022-11-06T07:55:27.357Z,5.60
2022-11-06T07:56:27.345Z,6.10
2022-11-06T07:57:27.341Z,5.00
2022-11-06T07:58:27.340Z,6.90
2022-11-06T07:59:27.350Z,5.30
2022-11-06T08:00:27.377Z,7.90
2022-11-06T08:01:27.469Z,6.10
2022-11-06T08:02:27.332Z,6.70
2022-11-06T08:03:27.288Z,5.60
2022-11-06T08:04:27.305Z,4.10
2022-11-06T08:05:27.273Z,6.80
2022-11-06T08:06:27.268Z,5.80
2022-11-06T08:07:27.265Z,4.90
2022-11-06T08:08:27.248Z,6.10
2022-11-06T08:09:27.270Z,6.60
2022-11-06T08:10:27.311Z,6.50
2022-11-06T08:11:27.225Z,4.10
2022-11-06T08:12:27.216Z,6.80
2022-11-06T08:13:27.211Z,4.00
2022-11-06T08:14:27.228Z,4.00
2022-11-06T08:15:27.193Z,5.10
2022-11-06T08:16:27.185Z,5.90
2022-11-06T08:17:27.181Z,4.80
2022-11-06T08:18:27.156Z,7.20
2022-11-06T08:19:28.190Z,4.60
2022-11-06T08:20:27.280Z,5.80
2022-11-06T08:21:27.148Z,5.60
2022-11-06T08:22:27.145Z,7.30
2022-11-06T08:23:27.134Z,4.80
2022-11-06T08:24:27.155Z,5.00
2022-11-06T08:25:27.118Z,9.10
2022-11-06T08:26:27.110Z,5.60
2022-11-06T08:27:27.103Z,4.00
2022-11-06T08:28:27.096Z,5.10
2022-11-06T08:29:27.113Z,4.10
2022-11-06T08:30:27.114Z,4.80
2022-11-06T08:31:27.099Z,6.60
2022-11-06T08:32:27.067Z,5.20
2022-11-06T08:33:27.060Z,4.70
2022-11-06T08:34:27.079Z,4.50
2022-11-06T08:35:27.045Z,5.00
2022-11-06T08:36:27.036Z,6.60
2022-11-06T08:37:27.026Z,4.80
2022-11-06T08:38:27.019Z,4.70
2022-11-06T08:39:27.034Z,4.90
2022-11-06T08:40:30.941Z,3.20
2022-11-06T08:41:28.000Z,6.90
2022-11-06T08:42:26.987Z,5.90
2022-11-06T08:43:26.977Z,5.60
2022-11-06T08:44:26.996Z,5.50
2022-11-06T08:45:26.964Z,7.10
2022-11-06T08:46:26.953Z,4.20
2022-11-06T08:47:26.947Z,4.90
2022-11-06T08:48:26.939Z,6.10
2022-11-06T08:49:26.958Z,3.70
2022-11-06T08:50:27.002Z,4.90
2022-11-06T08:51:26.915Z,5.10
2022-11-06T08:52:32.791Z,6.90
2022-11-06T08:53:29.021Z,4.60
2022-11-06T08:54:26.914Z,3.70
2022-11-06T08:55:26.880Z,4.20
2022-11-06T08:56:27.875Z,7.40
2022-11-06T08:57:26.868Z,3.40
2022-11-06T08:58:26.859Z,5.40
2022-11-06T08:59:26.882Z,4.30
2022-11-06T09:00:26.990Z,7.50
2022-11-06T09:01:27.063Z,4.90
2022-11-06T09:02:27.007Z,5.10
2022-11-06T09:03:26.818Z,4.70
2022-11-06T09:04:26.836Z,8.30
2022-11-06T09:05:26.809Z,7.00
2022-11-06T09:06:26.796Z,2.90
2022-11-06T09:07:26.788Z,4.60
2022-11-06T09:08:26.792Z,4.30
2022-11-06T09:09:26.806Z,7.00
2022-11-06T09:10:26.767Z,6.30
2022-11-06T09:11:26.761Z,3.70
2022-11-06T09:12:26.747Z,3.90
2022-11-06T09:13:26.744Z,5.20
2022-11-06T09:14:26.765Z,3.20
2022-11-06T09:15:26.725Z,5.60
2022-11-06T09:16:26.720Z,5.90
2022-11-06T09:17:26.714Z,5.80
2022-11-06T09:18:26.703Z,4.10
2022-11-06T09:19:26.694Z,4.00
2022-11-06T09:20:26.715Z,5.80
2022-11-06T09:21:26.680Z,4.80
2022-11-06T09:22:26.673Z,6.60
2022-11-06T09:23:26.664Z,5.30
2022-11-06T09:24:49.587Z,4.60
2022-11-06T09:25:28.673Z,5.90
2022-11-06T09:26:26.640Z,3.50
2022-11-06T09:27:26.637Z,5.10
2022-11-06T09:28:26.626Z,5.80
2022-11-06T09:29:26.615Z,5.10
2022-11-06T09:30:26.637Z,4.90
2022-11-06T09:31:26.599Z,4.90
2022-11-06T09:32:26.600Z,3.60
2022-11-06T09:33:26.600Z,4.70
2022-11-06T09:34:26.578Z,5.70
2022-11-06T09:35:26.597Z,4.80
2022-11-06T09:36:26.573Z,4.90
2022-11-06T09:37:26.551Z,4.80
2022-11-06T09:38:26.543Z,7.30
2022-11-06T09:39:26.536Z,4.90
2022-11-06T09:40:26.563Z,2.50
2022-11-06T09:41:26.526Z,4.50
2022-11-06T09:42:26.518Z,3.60
2022-11-06T09:43:50.012Z,4.70
2022-11-06T09:44:28.507Z,5.40
2022-11-06T09:45:26.521Z,5.30
2022-11-06T09:46:26.496Z,3.90
2022-11-06T09:47:26.487Z,5.10
2022-11-06T09:48:26.475Z,5.00
2022-11-06T09:49:26.469Z,4.50
2022-11-06T09:50:26.485Z,5.60
2022-11-06T09:51:26.453Z,4.80
2022-11-06T09:52:26.441Z,5.10
2022-11-06T09:53:26.442Z,5.20
2022-11-06T09:54:26.431Z,6.20
2022-11-06T09:55:26.452Z,5.10
2022-11-06T09:56:26.416Z,5.60
2022-11-06T09:57:26.414Z,4.80
2022-11-06T09:58:26.402Z,7.20
2022-11-06T09:59:26.393Z,4.40
2022-11-06T10:00:26.407Z,4.50
2022-11-06T10:01:27.592Z,4.90
2022-11-06T10:02:27.455Z,3.30
2022-11-06T10:03:26.355Z,3.30
2022-11-06T10:04:26.349Z,4.00
2022-11-06T10:05:26.374Z,4.80
2022-11-06T10:06:26.330Z,4.40
2022-11-06T10:07:26.326Z,3.00
2022-11-06T10:08:26.313Z,4.20
2022-11-06T10:09:26.311Z,4.90
2022-11-06T10:10:26.324Z,3.10
2022-11-06T10:11:26.296Z,4.60
2022-11-06T10:12:26.287Z,6.10
2022-11-06T10:13:26.278Z,4.00
2022-11-06T10:14:26.266Z,2.90
2022-11-06T10:15:26.304Z,3.70
2022-11-06T10:16:26.251Z,4.70
2022-11-06T10:17:26.246Z,4.50
2022-11-06T10:18:26.240Z,5.10
2022-11-06T10:19:26.231Z,3.90
2022-11-06T10:20:27.479Z,6.50
2022-11-06T10:21:27.210Z,5.10
2022-11-06T10:22:26.205Z,5.40
2022-11-06T10:23:26.194Z,4.60
2022-11-06T10:24:26.194Z,4.30
2022-11-06T10:25:26.187Z,3.20
2022-11-06T10:26:30.012Z,4.00
2022-11-06T10:27:28.164Z,5.90
2022-11-06T10:28:26.157Z,6.00
2022-11-06T10:29:26.150Z,5.50
2022-11-06T10:30:26.144Z,3.60
2022-11-06T10:31:26.155Z,4.30
2022-11-06T10:32:26.122Z,2.30
2022-11-06T10:33:26.119Z,4.40
2022-11-06T10:34:26.108Z,4.00
2022-11-06T10:35:26.099Z,2.70
2022-11-06T10:36:26.117Z,3.30
2022-11-06T10:37:26.087Z,4.60
2022-11-06T10:38:26.077Z,3.50
2022-11-06T10:39:26.069Z,3.30
2022-11-06T10:40:26.062Z,5.00
2022-11-06T10:41:26.074Z,3.50
2022-11-06T10:42:26.034Z,5.00
2022-11-06T10:43:27.044Z,4.20
2022-11-06T10:44:26.035Z,3.80
2022-11-06T10:45:26.020Z,3.80
2022-11-06T10:46:26.037Z,4.50
2022-11-06T10:47:26.004Z,3.60
2022-11-06T10:48:30.038Z,2.90
2022-11-06T10:49:27.984Z,3.10
2022-11-06T10:50:25.980Z,4.30
2022-11-06T10:51:25.992Z,3.70
2022-11-06T10:52:25.963Z,4.20
2022-11-06T10:53:25.950Z,4.50
2022-11-06T10:54:25.948Z,6.00
2022-11-06T10:55:25.941Z,7.80
2022-11-06T10:56:25.979Z,3.60
2022-11-06T10:57:25.925Z,2.30
2022-11-06T10:58:25.915Z,3.10
2022-11-06T10:59:25.910Z,3.30
2022-11-06T11:00:25.896Z,5.00
2022-11-06T11:01:26.098Z,2.90
2022-11-06T11:02:25.983Z,3.30
2022-11-06T11:03:25.875Z,3.80
2022-11-06T11:04:25.869Z,3.80
2022-11-06T11:05:25.859Z,3.30
2022-11-06T11:06:25.879Z,6.10
2022-11-06T11:07:25.840Z,4.40
2022-11-06T11:08:25.835Z,3.30
2022-11-06T11:09:25.828Z,2.80
2022-11-06T11:10:25.818Z,3.90
2022-11-06T11:11:25.838Z,3.40
2022-11-06T11:12:25.804Z,4.50
2022-11-06T11:13:25.797Z,2.80
2022-11-06T11:14:25.790Z,6.20
2022-11-06T11:15:25.779Z,4.40
2022-11-06T11:16:25.795Z,3.40
2022-11-06T11:17:25.793Z,4.20
2022-11-06T11:18:25.757Z,5.00
2022-11-06T11:19:25.759Z,3.70
2022-11-06T11:20:25.741Z,4.60
2022-11-06T11:21:25.780Z,4.20
2022-11-06T11:22:31.956Z,2.70
2022-11-06T11:23:27.766Z,2.70
2022-11-06T11:24:25.707Z,3.40
2022-11-06T11:25:25.713Z,4.10
2022-11-06T11:26:25.732Z,2.00
2022-11-06T11:27:25.683Z,2.70
2022-11-06T11:28:25.673Z,4.90
2022-11-06T11:29:25.665Z,3.40
2022-11-06T11:30:25.661Z,3.40
2022-11-06T11:31:25.658Z,4.10
2022-11-06T11:32:25.675Z,2.80
2022-11-06T11:33:25.643Z,4.40
2022-11-06T11:34:25.625Z,4.30
2022-11-06T11:35:25.621Z,3.70
2022-11-06T11:36:25.983Z,6.10
2022-11-06T11:37:25.632Z,4.90
2022-11-06T11:38:25.598Z,3.30
2022-11-06T11:39:25.589Z,4.10
2022-11-06T11:40:25.589Z,4.40
2022-11-06T11:41:25.577Z,6.00
2022-11-06T11:42:25.596Z,4.50
2022-11-06T11:43:25.558Z,3.10
2022-11-06T11:44:25.556Z,6.20
2022-11-06T11:45:25.543Z,3.40
2022-11-06T11:46:25.538Z,3.50
2022-11-06T11:47:25.549Z,3.30
2022-11-06T11:48:25.523Z,3.30
2022-11-06T11:49:25.513Z,4.00
2022-11-06T11:50:25.509Z,2.80
2022-11-06T11:51:25.496Z,3.50
2022-11-06T11:52:25.516Z,3.70
2022-11-06T11:53:25.487Z,4.50
2022-11-06T11:54:25.474Z,2.80
2022-11-06T11:55:25.467Z,2.90
2022-11-06T11:56:42.834Z,3.60
2022-11-06T11:57:27.492Z,2.70
2022-11-06T11:58:25.450Z,2.70
2022-11-06T11:59:25.440Z,2.50
2022-11-06T12:00:25.433Z,1.90
2022-11-06T12:01:25.488Z,4.00
2022-11-06T12:02:27.695Z,4.60
2022-11-06T12:03:26.447Z,2.90
2022-11-06T12:04:25.407Z,2.40
2022-11-06T12:05:25.397Z,4.50
2022-11-06T12:06:25.390Z,2.00
2022-11-06T12:07:25.408Z,4.30
2022-11-06T12:08:25.388Z,4.20
2022-11-06T12:09:25.370Z,3.20
2022-11-06T12:10:25.361Z,1.50
2022-11-06T12:11:25.352Z,3.80
2022-11-06T12:12:25.370Z,4.50
2022-11-06T12:13:25.337Z,2.70
2022-11-06T12:14:25.329Z,3.90
2022-11-06T12:15:25.321Z,2.40
2022-11-06T12:16:25.313Z,3.10
2022-11-06T12:17:25.329Z,3.30
2022-11-06T12:18:25.293Z,5.70
2022-11-06T12:19:26.287Z,2.70
2022-11-06T12:20:25.284Z,2.80
2022-11-06T12:21:25.274Z,2.80
2022-11-06T12:22:25.290Z,2.60
2022-11-06T12:23:25.254Z,2.60
2022-11-06T12:24:25.248Z,2.00
2022-11-06T12:25:25.242Z,2.30
2022-11-06T12:26:25.236Z,3.00
2022-11-06T12:27:25.257Z,2.20
2022-11-06T12:28:25.220Z,4.30
2022-11-06T12:29:25.215Z,3.00
2022-11-06T12:30:25.204Z,2.30
2022-11-06T12:31:25.193Z,2.50
2022-11-06T12:32:25.214Z,3.00
2022-11-06T12:33:59.496Z,2.30
2022-11-06T12:34:27.174Z,4.70
2022-11-06T12:35:25.161Z,2.00
2022-11-06T12:36:25.153Z,3.80
2022-11-06T12:37:25.178Z,2.80
2022-11-06T12:38:25.136Z,2.60
2022-11-06T12:39:25.132Z,3.50
2022-11-06T12:40:25.823Z,4.00
2022-11-06T12:41:26.118Z,4.10
2022-11-06T12:42:25.133Z,2.80
2022-11-06T12:43:25.097Z,5.20
2022-11-06T12:44:25.087Z,4.30
2022-11-06T12:45:25.082Z,3.10
2022-11-06T12:46:25.074Z,2.70
2022-11-06T12:47:26.532Z,2.00
2022-11-06T12:48:26.056Z,3.20
2022-11-06T12:49:25.050Z,4.00
2022-11-06T12:50:25.048Z,2.30
2022-11-06T12:51:25.037Z,2.90
2022-11-06T12:52:25.055Z,3.00
2022-11-06T12:53:25.020Z,3.90
2022-11-06T12:54:25.015Z,2.30
2022-11-06T12:55:25.001Z,2.30
2022-11-06T12:56:24.994Z,2.60
2022-11-06T12:57:24.988Z,2.60
2022-11-06T12:58:25.002Z,3.10
2022-11-06T12:59:24.973Z,2.50
2022-11-06T13:00:30.131Z,4.90
2022-11-06T13:01:27.138Z,4.90
2022-11-06T13:02:24.986Z,2.80
2022-11-06T13:03:24.960Z,3.70
2022-11-06T13:04:24.929Z,2.00
2022-11-06T13:05:24.988Z,2.60